< < Back
Terminal Aerodrome Forecast


Current Version              Previous Versions:   1  2  3  4  5  6  7  8  9  

Terminal Aerodrome Forecast

019
FTUS42 KCHS 280500
TAFSAV
TAF
KSAV 280533Z 2806/2906 23008KT P6SM SCT200
     FM281400 26011KT P6SM FEW040 SCT200
     FM281800 27014G20KT P6SM SCT050
     FM282200 25013G19KT P6SM VCTS BKN050CB
     FM290300 26007KT P6SM BKN080=



Latest METAR

401
SAUS80 KWBC 281800 RRA
MTRSAV
METAR KSAV 281753Z 27018G23KT 10SM SCT050 BKN150 36/21 A2988 RMK AO2 PK
WND 25028/1723 SLP117 T03610211 10361 20272 58014


USA.gov is the U.S. government's official web portal to all federal, state and local government web resources and services.